createdAt,value
2018-01-13T00:00:26.469Z,48.33
2018-01-13T00:01:30.759Z,50.17
2018-01-13T00:02:34.889Z,52.00
2018-01-13T00:03:38.920Z,48.93
2018-01-13T00:04:43.157Z,48.38
2018-01-13T00:05:47.164Z,51.10
2018-01-13T00:06:51.954Z,51.53
2018-01-13T00:07:55.988Z,50.00
2018-01-13T00:08:59.971Z,51.37
2018-01-13T00:10:04.734Z,49.90
2018-01-13T00:11:08.813Z,48.45
2018-01-13T00:12:13.127Z,50.47
2018-01-13T00:13:17.322Z,47.60
2018-01-13T00:14:21.571Z,48.85
2018-01-13T00:15:25.839Z,50.12
2018-01-13T00:16:30.007Z,50.03
2018-01-13T00:17:34.241Z,47.65
2018-01-13T00:18:38.412Z,46.53
2018-01-13T00:19:42.579Z,45.95
2018-01-13T00:20:46.629Z,45.37
2018-01-13T00:21:51.487Z,45.33
2018-01-13T00:22:55.768Z,45.65
2018-01-13T00:23:59.948Z,47.13
2018-01-13T00:25:03.928Z,46.40
2018-01-13T00:26:07.937Z,46.78
2018-01-13T00:27:11.991Z,46.63
2018-01-13T00:28:15.928Z,45.72
2018-01-13T00:29:19.943Z,47.50
2018-01-13T00:30:24.205Z,45.95
2018-01-13T00:31:28.438Z,48.63
2018-01-13T00:32:32.719Z,48.78
2018-01-13T00:33:36.910Z,45.63
2018-01-13T00:34:41.150Z,46.70
2018-01-13T00:35:45.427Z,44.10
2018-01-13T00:36:49.599Z,46.25
2018-01-13T00:37:54.682Z,45.35
2018-01-13T00:38:58.888Z,46.22
2018-01-13T00:40:03.034Z,45.10
2018-01-13T00:41:07.915Z,44.70
2018-01-13T00:42:12.055Z,45.08
2018-01-13T00:43:17.060Z,45.10
2018-01-13T00:44:21.259Z,45.65
2018-01-13T00:45:25.459Z,46.67
2018-01-13T00:46:29.966Z,46.25
2018-01-13T00:47:34.116Z,45.72
2018-01-13T00:48:38.481Z,46.60
2018-01-13T00:49:42.715Z,46.93
2018-01-13T00:50:47.656Z,46.03
2018-01-13T00:51:51.922Z,45.95
2018-01-13T00:53:02.944Z,45.17
2018-01-13T00:54:07.261Z,44.57
2018-01-13T00:55:11.480Z,45.47
2018-01-13T00:56:15.698Z,45.92
2018-01-13T00:57:19.813Z,47.10
2018-01-13T00:58:24.121Z,45.22
2018-01-13T00:59:29.300Z,44.63
2018-01-13T01:00:33.855Z,44.97
2018-01-13T01:01:41.184Z,43.85
2018-01-13T01:02:45.450Z,46.37
2018-01-13T01:03:50.497Z,46.17
2018-01-13T01:04:54.899Z,44.03
2018-01-13T01:05:59.045Z,44.22
2018-01-13T01:07:03.291Z,45.60
2018-01-13T01:08:08.242Z,44.20
2018-01-13T01:09:12.472Z,45.88
2018-01-13T01:10:16.791Z,45.20
2018-01-13T01:11:21.001Z,44.33
2018-01-13T01:12:25.783Z,45.12
2018-01-13T01:13:29.992Z,46.00
2018-01-13T01:14:34.254Z,45.70
2018-01-13T01:15:39.185Z,45.20
2018-01-13T01:16:43.534Z,45.10
2018-01-13T01:17:47.857Z,43.70
2018-01-13T01:18:51.960Z,43.83
2018-01-13T01:19:56.072Z,44.28
2018-01-13T01:21:00.723Z,45.45
2018-01-13T01:22:04.832Z,44.53
2018-01-13T01:23:09.579Z,44.55
2018-01-13T01:24:13.591Z,46.40
2018-01-13T01:25:17.577Z,45.50
2018-01-13T01:26:21.721Z,47.15
2018-01-13T01:27:25.764Z,43.75
2018-01-13T01:28:29.821Z,45.22
2018-01-13T01:29:33.869Z,45.08
2018-01-13T01:30:38.078Z,44.53
2018-01-13T01:31:42.045Z,45.25
2018-01-13T01:32:46.317Z,44.88
2018-01-13T01:33:50.568Z,47.40
2018-01-13T01:34:55.672Z,43.67
2018-01-13T01:35:59.941Z,45.12
2018-01-13T01:37:04.096Z,47.08
2018-01-13T01:38:08.280Z,46.40
2018-01-13T01:39:12.453Z,45.10
2018-01-13T01:40:16.506Z,43.60
2018-01-13T01:41:20.666Z,46.37
2018-01-13T01:42:25.074Z,45.45
2018-01-13T01:43:29.132Z,43.20
2018-01-13T01:44:34.015Z,46.40
2018-01-13T01:45:38.038Z,45.47
2018-01-13T01:46:41.986Z,45.10
2018-01-13T01:47:46.114Z,44.13
2018-01-13T01:48:50.172Z,45.43
2018-01-13T01:49:54.333Z,45.53
2018-01-13T01:50:58.531Z,44.40
2018-01-13T01:52:02.674Z,45.25
2018-01-13T01:53:07.534Z,42.92
2018-01-13T01:54:11.593Z,45.75
2018-01-13T01:55:16.324Z,44.38
2018-01-13T01:56:20.301Z,43.78
2018-01-13T01:57:24.249Z,44.47
2018-01-13T01:58:28.416Z,45.30
2018-01-13T01:59:33.157Z,43.92
2018-01-13T02:00:37.362Z,43.95
2018-01-13T02:01:41.553Z,45.47
2018-01-13T02:02:45.739Z,43.45
2018-01-13T02:03:50.714Z,43.38
2018-01-13T02:04:54.894Z,44.47
2018-01-13T02:05:59.115Z,43.58
2018-01-13T02:07:03.350Z,46.15
2018-01-13T02:08:07.577Z,45.53
2018-01-13T02:09:12.641Z,43.80
2018-01-13T02:10:16.912Z,45.40
2018-01-13T02:11:21.954Z,44.53
2018-01-13T02:12:26.137Z,44.28
2018-01-13T02:13:31.117Z,45.00
2018-01-13T02:14:35.494Z,46.37
2018-01-13T02:15:39.690Z,44.67
2018-01-13T02:16:43.808Z,44.57
2018-01-13T02:17:48.099Z,44.35
2018-01-13T02:18:52.548Z,45.88
2018-01-13T02:19:56.892Z,42.42
2018-01-13T02:21:01.085Z,44.67
2018-01-13T02:22:05.276Z,45.20
2018-01-13T02:23:09.393Z,45.00
2018-01-13T02:24:14.021Z,45.20
2018-01-13T02:25:18.273Z,45.15
2018-01-13T02:26:22.500Z,43.83
2018-01-13T02:27:26.706Z,45.17
2018-01-13T02:28:30.891Z,44.97
2018-01-13T02:29:35.090Z,45.20
2018-01-13T02:30:39.196Z,43.25
2018-01-13T02:31:43.270Z,43.45
2018-01-13T02:32:48.083Z,43.35
2018-01-13T02:33:52.832Z,44.58
2018-01-13T02:34:56.825Z,43.67
2018-01-13T02:36:00.824Z,45.03
2018-01-13T02:37:05.072Z,43.90
2018-01-13T02:38:09.037Z,45.10
2018-01-13T02:39:13.379Z,44.55
2018-01-13T02:40:17.589Z,44.42
2018-01-13T02:41:21.853Z,44.88
2018-01-13T02:42:26.025Z,45.75
2018-01-13T02:43:31.233Z,45.65
2018-01-13T02:44:36.235Z,43.27
2018-01-13T02:45:40.373Z,43.55
2018-01-13T02:46:45.457Z,43.55
2018-01-13T02:47:49.711Z,43.20
2018-01-13T02:48:54.696Z,41.97
2018-01-13T02:49:59.118Z,43.87
2018-01-13T02:51:04.357Z,44.33
2018-01-13T02:52:09.084Z,44.55
2018-01-13T02:53:14.096Z,44.70
2018-01-13T02:54:18.310Z,43.00
2018-01-13T02:55:23.547Z,44.17
2018-01-13T02:56:28.397Z,42.85
2018-01-13T02:57:32.484Z,46.15
2018-01-13T02:58:36.600Z,47.72
2018-01-13T02:59:40.685Z,45.60
2018-01-13T03:00:44.705Z,45.95
2018-01-13T03:01:49.883Z,46.08
2018-01-13T03:02:54.047Z,45.92
2018-01-13T03:03:58.352Z,44.88
2018-01-13T03:05:02.467Z,45.78
2018-01-13T03:06:06.527Z,46.33
2018-01-13T03:07:10.624Z,44.93
2018-01-13T03:08:15.376Z,44.13
2018-01-13T03:09:20.174Z,45.05
2018-01-13T03:10:24.328Z,45.95
2018-01-13T03:11:28.466Z,44.80
2018-01-13T03:12:32.700Z,42.75
2018-01-13T03:13:36.949Z,43.75
2018-01-13T03:14:41.423Z,43.55
2018-01-13T03:15:45.618Z,42.33
2018-01-13T03:16:49.745Z,43.75
2018-01-13T03:17:54.017Z,43.20
2018-01-13T03:18:58.175Z,45.25
2018-01-13T03:20:02.215Z,42.95
2018-01-13T03:21:06.554Z,42.97
2018-01-13T03:22:10.694Z,41.83
2018-01-13T03:23:14.689Z,42.38
2018-01-13T03:24:18.723Z,44.33
2018-01-13T03:25:22.732Z,43.85
2018-01-13T03:26:26.932Z,44.67
2018-01-13T03:27:31.245Z,44.38
2018-01-13T03:28:35.813Z,43.58
2018-01-13T03:29:39.860Z,44.22
2018-01-13T03:30:43.930Z,44.22
2018-01-13T03:31:48.788Z,42.42
2018-01-13T03:32:52.898Z,44.13
2018-01-13T03:33:57.121Z,42.70
2018-01-13T03:35:01.207Z,43.10
2018-01-13T03:36:05.280Z,40.80
2018-01-13T03:37:09.348Z,43.47
2018-01-13T03:38:13.397Z,42.63
2018-01-13T03:39:17.412Z,41.08
2018-01-13T03:40:21.414Z,43.40
2018-01-13T03:41:25.445Z,43.75
2018-01-13T03:42:29.541Z,40.35
2018-01-13T03:43:34.264Z,41.67
2018-01-13T03:44:38.241Z,42.35
2018-01-13T03:45:42.723Z,42.28
2018-01-13T03:46:46.959Z,44.25
2018-01-13T03:47:50.996Z,41.15
2018-01-13T03:48:55.801Z,43.03
2018-01-13T03:49:59.829Z,41.22
2018-01-13T03:51:04.586Z,40.53
2018-01-13T03:52:08.641Z,40.88
2018-01-13T03:53:13.457Z,41.20
2018-01-13T03:54:18.184Z,41.95
2018-01-13T03:55:22.941Z,39.95
2018-01-13T03:56:27.047Z,40.85
2018-01-13T03:57:31.071Z,40.05
2018-01-13T03:58:35.070Z,40.28
2018-01-13T03:59:40.896Z,41.17
2018-01-13T04:00:44.945Z,39.60
2018-01-13T04:01:49.692Z,40.47
2018-01-13T04:02:53.984Z,40.50
2018-01-13T04:03:58.478Z,41.30
2018-01-13T04:05:02.550Z,39.25
2018-01-13T04:06:06.933Z,40.10
2018-01-13T04:07:11.154Z,38.53
2018-01-13T04:08:15.181Z,38.83
2018-01-13T04:09:19.517Z,37.75
2018-01-13T04:10:24.040Z,37.15
2018-01-13T04:11:28.135Z,36.08
2018-01-13T04:12:32.094Z,35.72
2018-01-13T04:13:36.241Z,36.13
2018-01-13T04:14:40.191Z,37.60
2018-01-13T04:15:44.691Z,36.38
2018-01-13T04:16:48.935Z,34.95
2018-01-13T04:17:54.008Z,35.70
2018-01-13T04:18:58.143Z,48.25
2018-01-13T04:20:02.349Z,53.72
2018-01-13T04:21:06.330Z,45.33
2018-01-13T04:22:10.385Z,45.90
2018-01-13T04:23:14.565Z,45.38
2018-01-13T04:24:18.604Z,48.38
2018-01-13T04:25:22.782Z,47.60
2018-01-13T04:26:26.975Z,44.88
2018-01-13T04:27:31.962Z,38.35
2018-01-13T04:28:36.108Z,33.88
2018-01-13T04:29:41.001Z,35.05
2018-01-13T04:30:45.279Z,33.20
2018-01-13T04:31:49.545Z,32.30
2018-01-13T04:32:54.540Z,33.08
2018-01-13T04:33:58.565Z,31.80
2018-01-13T04:35:03.334Z,31.70
2018-01-13T04:36:07.380Z,32.50
2018-01-13T04:37:12.148Z,32.70
2018-01-13T04:38:16.136Z,33.10
2018-01-13T04:39:20.175Z,30.73
2018-01-13T04:40:24.139Z,32.72
2018-01-13T04:41:28.139Z,40.75
2018-01-13T04:42:32.116Z,40.72
2018-01-13T04:43:36.084Z,42.05
2018-01-13T04:44:40.093Z,34.83
2018-01-13T04:45:44.864Z,32.60
2018-01-13T04:46:48.864Z,31.40
2018-01-13T04:47:52.869Z,33.10
2018-01-13T04:48:56.937Z,31.92
2018-01-13T04:50:00.882Z,31.58
2018-01-13T04:51:05.848Z,30.00
2018-01-13T04:52:10.037Z,30.35
2018-01-13T04:53:14.986Z,30.00
2018-01-13T04:54:19.225Z,30.98
2018-01-13T04:55:24.173Z,56.53
2018-01-13T04:56:28.298Z,40.00
2018-01-13T04:57:33.253Z,34.22
2018-01-13T04:58:37.462Z,30.73
2018-01-13T04:59:42.161Z,32.03
2018-01-13T05:00:46.284Z,30.70
2018-01-13T05:01:50.485Z,28.05
2018-01-13T05:02:54.625Z,30.80
2018-01-13T05:03:59.207Z,29.98
2018-01-13T05:05:03.402Z,29.98
2018-01-13T05:06:07.613Z,28.70
2018-01-13T05:07:11.815Z,28.00
2018-01-13T05:08:16.206Z,27.87
2018-01-13T05:09:20.327Z,29.35
2018-01-13T05:10:24.695Z,28.08
2018-01-13T05:11:29.900Z,28.75
2018-01-13T05:12:34.060Z,27.62
2018-01-13T05:13:38.274Z,26.87
2018-01-13T05:14:42.696Z,26.85
2018-01-13T05:15:46.904Z,27.20
2018-01-13T05:16:51.483Z,28.10
2018-01-13T05:17:55.613Z,27.75
2018-01-13T05:18:59.805Z,26.20
2018-01-13T05:20:04.017Z,26.62
2018-01-13T05:21:08.203Z,26.33
2018-01-13T05:22:12.339Z,25.50
2018-01-13T05:23:16.605Z,24.45
2018-01-13T05:24:21.100Z,26.25
2018-01-13T05:25:25.993Z,28.10
2018-01-13T05:26:30.110Z,28.42
2018-01-13T05:27:35.387Z,25.55
2018-01-13T05:28:39.585Z,26.20
2018-01-13T05:29:43.773Z,25.83
2018-01-13T05:30:47.817Z,25.92
2018-01-13T05:31:51.900Z,27.08
2018-01-13T05:32:55.983Z,27.13
2018-01-13T05:34:00.423Z,25.45
2018-01-13T05:35:04.709Z,24.92
2018-01-13T05:36:08.894Z,25.70
2018-01-13T05:37:13.102Z,24.90
2018-01-13T05:38:18.075Z,25.37
2018-01-13T05:39:22.256Z,24.75
2018-01-13T05:40:26.733Z,25.42
2018-01-13T05:41:31.681Z,24.23
2018-01-13T05:42:36.086Z,25.15
2018-01-13T05:43:40.360Z,26.50
2018-01-13T05:44:45.391Z,25.75
2018-01-13T05:45:50.317Z,26.85
2018-01-13T05:46:55.292Z,25.67
2018-01-13T05:47:59.590Z,27.90
2018-01-13T05:49:03.781Z,27.60
2018-01-13T05:50:07.840Z,26.05
2018-01-13T05:51:12.628Z,24.60
2018-01-13T05:52:16.605Z,25.25
2018-01-13T05:53:20.705Z,26.30
2018-01-13T05:54:24.732Z,26.15
2018-01-13T05:55:28.721Z,25.88
2018-01-13T05:56:32.685Z,26.20
2018-01-13T05:57:36.642Z,37.28
2018-01-13T05:58:40.649Z,35.38
2018-01-13T05:59:44.713Z,31.12
2018-01-13T06:00:48.710Z,26.77
2018-01-13T06:01:52.822Z,27.90
2018-01-13T06:02:56.813Z,27.10
2018-01-13T06:04:00.857Z,27.25
2018-01-13T06:05:05.610Z,26.00
2018-01-13T06:06:09.621Z,33.85
2018-01-13T06:07:13.573Z,53.30
2018-01-13T06:08:18.352Z,31.60
2018-01-13T06:09:22.616Z,26.62
2018-01-13T06:10:27.860Z,28.27
2018-01-13T06:11:32.197Z,27.42
2018-01-13T06:12:36.304Z,26.48
2018-01-13T06:13:41.186Z,25.15
2018-01-13T06:14:45.321Z,23.87
2018-01-13T06:15:49.392Z,27.80
2018-01-13T06:16:53.730Z,30.62
2018-01-13T06:17:57.678Z,27.60
2018-01-13T06:19:02.482Z,29.00
2018-01-13T06:20:06.529Z,26.65
2018-01-13T06:21:10.882Z,27.10
2018-01-13T06:22:14.917Z,29.58
2018-01-13T06:23:18.909Z,26.05
2018-01-13T06:24:22.932Z,27.90
2018-01-13T06:25:26.907Z,25.33
2018-01-13T06:26:30.927Z,24.55
2018-01-13T06:27:34.958Z,23.48
2018-01-13T06:28:38.937Z,22.25
2018-01-13T06:29:42.926Z,22.42
2018-01-13T06:30:47.001Z,21.83
2018-01-13T06:31:52.099Z,23.75
2018-01-13T06:32:56.748Z,24.25
2018-01-13T06:34:02.221Z,23.30
2018-01-13T06:35:06.338Z,22.17
2018-01-13T06:36:10.581Z,22.03
2018-01-13T06:37:15.444Z,22.50
2018-01-13T06:38:19.585Z,22.42
2018-01-13T06:39:23.719Z,22.03
2018-01-13T06:40:28.687Z,23.37
2018-01-13T06:41:33.009Z,23.27
2018-01-13T06:42:37.041Z,23.00
2018-01-13T06:43:41.933Z,22.83
2018-01-13T06:44:46.090Z,22.77
2018-01-13T06:45:50.189Z,21.70
2018-01-13T06:46:54.423Z,22.87
2018-01-13T06:47:58.630Z,23.20
2018-01-13T06:49:02.831Z,22.17
2018-01-13T06:50:07.339Z,41.42
2018-01-13T06:51:11.463Z,64.95
2018-01-13T06:52:15.549Z,39.25
2018-01-13T06:53:19.530Z,25.10
2018-01-13T06:54:23.507Z,27.05
2018-01-13T06:55:28.230Z,22.65
2018-01-13T06:56:32.341Z,23.15
2018-01-13T06:57:36.562Z,22.75
2018-01-13T06:58:40.547Z,22.08
2018-01-13T06:59:44.582Z,22.62
2018-01-13T07:00:48.861Z,21.60
2018-01-13T07:01:53.052Z,21.77
2018-01-13T07:02:57.337Z,20.85
2018-01-13T07:04:02.228Z,22.48
2018-01-13T07:05:06.282Z,21.67
2018-01-13T07:06:10.280Z,22.33
2018-01-13T07:07:14.298Z,21.00
2018-01-13T07:08:18.589Z,22.63
2018-01-13T07:09:22.635Z,23.83
2018-01-13T07:10:26.633Z,21.27
2018-01-13T07:11:30.936Z,20.52
2018-01-13T07:12:34.982Z,30.40
2018-01-13T07:13:40.058Z,25.12
2018-01-13T07:14:44.308Z,23.20
2018-01-13T07:15:49.213Z,21.27
2018-01-13T07:16:53.434Z,21.70
2018-01-13T07:17:58.323Z,20.88
2018-01-13T07:19:02.528Z,20.63
2018-01-13T07:20:06.775Z,21.40
2018-01-13T07:21:10.921Z,21.37
2018-01-13T07:22:14.880Z,20.65
2018-01-13T07:23:19.618Z,20.92
2018-01-13T07:24:23.722Z,20.70
2018-01-13T07:25:27.886Z,19.58
2018-01-13T07:26:32.698Z,20.23
2018-01-13T07:27:36.705Z,20.37
2018-01-13T07:28:41.423Z,21.37
2018-01-13T07:29:46.247Z,24.10
2018-01-13T07:30:51.366Z,33.63
2018-01-13T07:31:56.135Z,26.20
2018-01-13T07:33:00.122Z,21.65
2018-01-13T07:34:04.218Z,23.15
2018-01-13T07:35:08.939Z,21.90
2018-01-13T07:36:13.017Z,22.20
2018-01-13T07:37:17.244Z,21.53
2018-01-13T07:38:21.191Z,20.27
2018-01-13T07:39:25.962Z,21.75
2018-01-13T07:40:29.938Z,19.67
2018-01-13T07:41:34.803Z,21.23
2018-01-13T07:42:38.862Z,21.55
2018-01-13T07:43:43.211Z,21.50
2018-01-13T07:44:47.157Z,19.00
2018-01-13T07:45:51.969Z,18.80
2018-01-13T07:46:56.792Z,21.30
2018-01-13T07:48:01.561Z,21.58
2018-01-13T07:49:05.744Z,21.65
2018-01-13T07:50:10.042Z,44.95
2018-01-13T07:51:14.059Z,27.27
2018-01-13T07:52:18.061Z,23.27
2018-01-13T07:53:22.098Z,21.08
2018-01-13T07:54:26.053Z,20.70
2018-01-13T07:55:30.369Z,21.92
2018-01-13T07:56:34.308Z,20.40
2018-01-13T07:57:38.341Z,19.10
2018-01-13T07:58:43.164Z,20.00
2018-01-13T07:59:47.176Z,19.95
2018-01-13T08:00:51.133Z,21.25
2018-01-13T08:01:55.411Z,21.02
2018-01-13T08:02:59.458Z,20.33
2018-01-13T08:04:04.662Z,22.05
2018-01-13T08:05:08.701Z,22.02
2018-01-13T08:06:12.867Z,22.50
2018-01-13T08:07:17.008Z,20.90
2018-01-13T08:08:21.376Z,19.75
2018-01-13T08:09:25.401Z,19.55
2018-01-13T08:10:30.198Z,20.27
2018-01-13T08:11:34.266Z,21.30
2018-01-13T08:12:38.270Z,20.23
2018-01-13T08:13:42.549Z,19.62
2018-01-13T08:14:46.610Z,20.83
2018-01-13T08:15:50.597Z,21.00
2018-01-13T08:16:54.656Z,20.90
2018-01-13T08:17:58.694Z,19.98
2018-01-13T08:19:03.170Z,21.52
2018-01-13T08:20:07.499Z,20.40
2018-01-13T08:21:11.468Z,20.88
2018-01-13T08:22:15.520Z,20.37
2018-01-13T08:23:19.593Z,22.52
2018-01-13T08:24:23.615Z,20.98
2018-01-13T08:25:27.722Z,20.00
2018-01-13T08:26:32.134Z,20.80
2018-01-13T08:27:36.555Z,21.48
2018-01-13T08:28:40.691Z,21.15
2018-01-13T08:29:44.906Z,20.25
2018-01-13T08:30:49.100Z,21.42
2018-01-13T08:31:53.259Z,21.48
2018-01-13T08:32:57.749Z,21.00
2018-01-13T08:34:01.924Z,20.17
2018-01-13T08:35:06.151Z,20.25
2018-01-13T08:36:10.385Z,22.15
2018-01-13T08:37:14.590Z,21.25
2018-01-13T08:38:18.761Z,21.50
2018-01-13T08:39:23.250Z,20.42
2018-01-13T08:40:27.478Z,19.83
2018-01-13T08:41:31.666Z,23.05
2018-01-13T08:42:35.869Z,20.88
2018-01-13T08:43:40.062Z,20.45
2018-01-13T08:44:44.282Z,19.08
2018-01-13T08:45:48.361Z,20.40
2018-01-13T08:46:53.102Z,20.58
2018-01-13T08:47:57.129Z,20.10
2018-01-13T08:49:01.162Z,20.40
2018-01-13T08:50:05.223Z,19.40
2018-01-13T08:51:09.189Z,19.47
2018-01-13T08:52:13.257Z,20.30
2018-01-13T08:53:17.335Z,19.55
2018-01-13T08:54:21.396Z,18.73
2018-01-13T08:55:25.656Z,19.00
2018-01-13T08:56:29.790Z,21.70
2018-01-13T08:57:34.780Z,20.13
2018-01-13T08:58:40.060Z,20.10
2018-01-13T08:59:44.125Z,21.07
2018-01-13T09:00:48.248Z,21.37
2018-01-13T09:01:53.132Z,20.00
2018-01-13T09:02:57.308Z,17.87
2018-01-13T09:04:01.614Z,19.25
2018-01-13T09:05:05.782Z,19.10
2018-01-13T09:06:10.803Z,19.20
2018-01-13T09:07:15.836Z,19.00
2018-01-13T09:08:20.923Z,17.70
2018-01-13T09:09:25.157Z,18.80
2018-01-13T09:10:30.148Z,18.05
2018-01-13T09:11:36.344Z,18.73
2018-01-13T09:12:40.569Z,18.85
2018-01-13T09:13:44.806Z,21.75
2018-01-13T09:14:49.124Z,20.25
2018-01-13T09:15:53.707Z,18.60
2018-01-13T09:16:57.992Z,18.80
2018-01-13T09:18:02.136Z,19.15
2018-01-13T09:19:06.632Z,23.15
2018-01-13T09:20:11.201Z,24.90
2018-01-13T09:21:16.110Z,21.95
2018-01-13T09:22:21.108Z,20.85
2018-01-13T09:23:25.997Z,19.08
2018-01-13T09:24:30.187Z,20.05
2018-01-13T09:25:34.220Z,18.12
2018-01-13T09:26:39.146Z,18.83
2018-01-13T09:27:43.113Z,19.25
2018-01-13T09:28:47.145Z,17.92
2018-01-13T09:29:51.176Z,18.35
2018-01-13T09:30:55.176Z,18.25
2018-01-13T09:31:59.234Z,17.42
2018-01-13T09:33:03.622Z,16.85
2018-01-13T09:34:07.955Z,18.15
2018-01-13T09:35:12.267Z,17.10
2018-01-13T09:36:16.490Z,16.37
2018-01-13T09:37:20.609Z,16.13
2018-01-13T09:38:27.820Z,16.53
2018-01-13T09:39:40.238Z,16.48
2018-01-13T09:40:44.604Z,15.90
2018-01-13T09:41:49.140Z,14.93
2018-01-13T09:42:54.379Z,14.07
2018-01-13T09:43:59.712Z,15.40
2018-01-13T09:45:04.275Z,15.52
2018-01-13T09:46:09.399Z,15.05
2018-01-13T09:47:13.995Z,15.52
2018-01-13T09:48:18.234Z,16.23
2018-01-13T09:49:23.228Z,14.90
2018-01-13T09:50:27.498Z,18.92
2018-01-13T09:51:31.680Z,23.65
2018-01-13T09:52:36.894Z,18.77
2018-01-13T09:53:41.721Z,17.00
2018-01-13T09:54:45.832Z,16.20
2018-01-13T09:55:49.855Z,16.87
2018-01-13T09:56:53.821Z,17.35
2018-01-13T09:57:58.774Z,18.15
2018-01-13T09:59:02.987Z,17.80
2018-01-13T10:00:07.124Z,18.85
2018-01-13T10:01:11.362Z,17.92
2018-01-13T10:02:15.526Z,17.62
2018-01-13T10:03:19.793Z,17.10
2018-01-13T10:04:24.065Z,18.10
2018-01-13T10:05:28.553Z,16.92
2018-01-13T10:06:32.719Z,16.02
2018-01-13T10:07:36.881Z,16.98
2018-01-13T10:08:41.090Z,16.50
2018-01-13T10:09:45.977Z,16.50
2018-01-13T10:10:50.211Z,18.17
2018-01-13T10:11:54.923Z,16.87
2018-01-13T10:12:59.211Z,15.97
2018-01-13T10:14:03.297Z,16.60
2018-01-13T10:15:07.373Z,16.50
2018-01-13T10:16:11.478Z,17.23
2018-01-13T10:17:15.621Z,17.15
2018-01-13T10:18:20.012Z,18.08
2018-01-13T10:19:24.132Z,17.35
2018-01-13T10:20:29.121Z,16.08
2018-01-13T10:21:33.148Z,16.40
2018-01-13T10:22:37.193Z,15.50
2018-01-13T10:23:42.311Z,17.30
2018-01-13T10:24:47.249Z,17.12
2018-01-13T10:25:52.075Z,16.60
2018-01-13T10:26:56.270Z,15.88
2018-01-13T10:28:01.148Z,15.45
2018-01-13T10:29:05.146Z,15.80
2018-01-13T10:30:09.488Z,14.50
2018-01-13T10:31:14.273Z,13.70
2018-01-13T10:32:18.641Z,14.32
2018-01-13T10:33:23.613Z,13.95
2018-01-13T10:34:27.885Z,14.80
2018-01-13T10:35:32.151Z,14.93
2018-01-13T10:36:37.967Z,14.52
2018-01-13T10:37:43.017Z,13.85
2018-01-13T10:38:48.016Z,14.48
2018-01-13T10:39:52.252Z,13.90
2018-01-13T10:40:57.160Z,14.70
2018-01-13T10:42:02.837Z,14.38
2018-01-13T10:43:07.057Z,15.10
2018-01-13T10:44:11.277Z,13.88
2018-01-13T10:45:15.469Z,13.57
2018-01-13T10:46:19.824Z,14.10
2018-01-13T10:47:24.635Z,14.13
2018-01-13T10:48:28.757Z,15.63
2018-01-13T10:49:33.597Z,14.32
2018-01-13T10:50:37.624Z,13.75
2018-01-13T10:51:41.644Z,14.50
2018-01-13T10:52:45.641Z,13.55
2018-01-13T10:53:49.642Z,13.13
2018-01-13T10:54:54.090Z,13.40
2018-01-13T10:55:58.919Z,13.27
2018-01-13T10:57:03.078Z,13.27
2018-01-13T10:58:07.420Z,13.82
2018-01-13T10:59:12.394Z,13.43
2018-01-13T11:00:16.796Z,13.75
2018-01-13T11:01:20.918Z,12.77
2018-01-13T11:02:25.222Z,12.57
2018-01-13T11:03:29.322Z,32.50
2018-01-13T11:04:33.353Z,31.10
2018-01-13T11:05:38.144Z,21.27
2018-01-13T11:06:42.541Z,15.77
2018-01-13T11:07:47.570Z,13.05
2018-01-13T11:08:51.566Z,11.60
2018-01-13T11:09:55.634Z,12.27
2018-01-13T11:10:59.709Z,11.90
2018-01-13T11:12:04.432Z,12.40
2018-01-13T11:13:09.576Z,12.50
2018-01-13T11:14:13.661Z,11.38
2018-01-13T11:15:17.765Z,11.52
2018-01-13T11:16:22.688Z,11.65
2018-01-13T11:17:27.596Z,11.02
2018-01-13T11:18:32.810Z,11.55
2018-01-13T11:19:36.864Z,11.80
2018-01-13T11:20:40.936Z,11.10
2018-01-13T11:21:45.774Z,11.48
2018-01-13T11:22:49.805Z,11.48
2018-01-13T11:23:54.162Z,11.52
2018-01-13T11:24:59.255Z,11.90
2018-01-13T11:26:03.261Z,11.40
2018-01-13T11:27:07.357Z,11.70
2018-01-13T11:28:11.466Z,12.37
2018-01-13T11:29:15.712Z,11.65
2018-01-13T11:30:20.293Z,12.27
2018-01-13T11:31:24.367Z,11.15
2018-01-13T11:32:28.366Z,11.40
2018-01-13T11:33:32.413Z,11.57
2018-01-13T11:34:37.404Z,11.38
2018-01-13T11:35:41.426Z,11.77
2018-01-13T11:36:46.558Z,12.23
2018-01-13T11:37:51.279Z,11.93
2018-01-13T11:38:56.153Z,11.68
2018-01-13T11:40:00.334Z,11.27
2018-01-13T11:41:05.076Z,11.85
2018-01-13T11:42:09.885Z,12.00
2018-01-13T11:43:14.974Z,11.30
2018-01-13T11:44:22.856Z,11.07
2018-01-13T11:45:27.774Z,12.10
2018-01-13T11:46:32.545Z,10.30
2018-01-13T11:47:36.579Z,9.93
2018-01-13T11:48:40.965Z,9.10
2018-01-13T11:49:45.068Z,9.30
2018-01-13T11:50:50.068Z,9.37
2018-01-13T11:51:54.959Z,10.07
2018-01-13T11:52:59.883Z,10.30
2018-01-13T11:54:06.009Z,9.70
2018-01-13T11:55:13.836Z,13.95
2018-01-13T11:56:18.107Z,27.25
2018-01-13T11:57:22.383Z,20.90
2018-01-13T11:58:26.674Z,17.95
2018-01-13T11:59:30.942Z,32.97
2018-01-13T12:00:35.821Z,24.55
2018-01-13T12:01:40.261Z,26.35
2018-01-13T12:02:44.296Z,22.15
2018-01-13T12:03:48.329Z,30.80
2018-01-13T12:04:52.406Z,43.15
2018-01-13T12:05:56.482Z,28.38
2018-01-13T12:07:01.275Z,24.50
2018-01-13T12:08:05.736Z,13.70
2018-01-13T12:09:09.887Z,24.12
2018-01-13T12:10:13.939Z,18.05
2018-01-13T12:11:18.185Z,13.15
2018-01-13T12:12:22.158Z,11.70
2018-01-13T12:13:26.241Z,13.68
2018-01-13T12:14:30.461Z,11.73
2018-01-13T12:15:34.535Z,9.13
2018-01-13T12:16:39.366Z,9.65
2018-01-13T12:17:43.521Z,9.70
2018-01-13T12:18:47.730Z,10.05
2018-01-13T12:19:51.872Z,9.95
2018-01-13T12:20:56.266Z,9.98
2018-01-13T12:22:01.268Z,9.85
2018-01-13T12:23:05.480Z,10.18
2018-01-13T12:24:09.688Z,10.55
2018-01-13T12:25:14.680Z,10.65
2018-01-13T12:26:18.875Z,10.98
2018-01-13T12:27:22.866Z,17.60
2018-01-13T12:28:26.980Z,14.77
2018-01-13T12:29:31.189Z,22.85
2018-01-13T12:30:35.177Z,14.30
2018-01-13T12:31:40.236Z,9.68
2018-01-13T12:32:44.717Z,9.57
2018-01-13T12:33:49.409Z,9.43
2018-01-13T12:34:53.500Z,9.43
2018-01-13T12:35:57.495Z,9.43
2018-01-13T12:37:02.322Z,9.75
2018-01-13T12:38:06.619Z,10.05
2018-01-13T12:39:11.612Z,9.83
2018-01-13T12:40:15.763Z,8.80
2018-01-13T12:41:19.978Z,9.85
2018-01-13T12:42:24.114Z,10.10
2018-01-13T12:43:28.340Z,10.53
2018-01-13T12:44:32.637Z,9.70
2018-01-13T12:45:36.794Z,10.20
2018-01-13T12:46:40.939Z,9.30
2018-01-13T12:47:44.915Z,9.02
2018-01-13T12:48:49.153Z,8.50
2018-01-13T12:49:53.243Z,8.20
2018-01-13T12:50:59.102Z,8.18
2018-01-13T12:52:05.790Z,8.60
2018-01-13T12:53:12.329Z,8.02
2018-01-13T12:54:16.951Z,8.40
2018-01-13T12:55:21.719Z,9.80
2018-01-13T12:56:25.790Z,9.15
2018-01-13T12:57:29.763Z,9.98
2018-01-13T12:58:34.272Z,9.50
2018-01-13T12:59:38.263Z,9.40
2018-01-13T13:00:42.993Z,9.15
2018-01-13T13:01:49.011Z,9.57
2018-01-13T13:02:53.154Z,8.80
2018-01-13T13:03:58.205Z,10.23
2018-01-13T13:05:05.243Z,9.60
2018-01-13T13:06:10.254Z,9.70
2018-01-13T13:07:24.585Z,8.70
2018-01-13T13:08:32.483Z,8.80
2018-01-13T13:11:03.766Z,9.75
2018-01-13T13:12:39.667Z,9.05
2018-01-13T13:13:43.966Z,9.00
2018-01-13T13:14:48.254Z,8.75
2018-01-13T13:15:52.783Z,8.90
2018-01-13T13:16:56.810Z,8.93
2018-01-13T13:18:01.356Z,9.13
2018-01-13T13:19:06.288Z,9.85
2018-01-13T13:20:10.580Z,13.15
2018-01-13T13:21:14.665Z,9.20
2018-01-13T13:22:20.169Z,12.52
2018-01-13T13:23:24.269Z,13.95
2018-01-13T13:24:37.428Z,16.95
2018-01-13T13:25:41.620Z,10.30
2018-01-13T13:26:46.458Z,9.93
2018-01-13T13:27:50.792Z,9.15
2018-01-13T13:28:54.982Z,9.55
2018-01-13T13:29:59.665Z,9.48
2018-01-13T13:31:04.463Z,9.38
2018-01-13T13:32:10.033Z,9.60
2018-01-13T13:33:14.842Z,9.90
2018-01-13T13:34:19.770Z,10.10
2018-01-13T13:35:24.663Z,8.95
2018-01-13T13:36:29.228Z,8.73
2018-01-13T13:37:33.337Z,8.40
2018-01-13T13:38:40.655Z,8.30
2018-01-13T13:39:44.756Z,8.30
2018-01-13T13:40:49.036Z,8.25
2018-01-13T13:41:53.086Z,8.35
2018-01-13T13:42:57.951Z,7.62
2018-01-13T13:44:02.527Z,7.65
2018-01-13T13:45:07.322Z,7.90
2018-01-13T13:46:11.452Z,7.97
2018-01-13T13:47:15.746Z,7.75
2018-01-13T13:48:20.824Z,7.40
2018-01-13T13:49:25.188Z,7.75
2018-01-13T13:50:29.407Z,7.47
2018-01-13T13:51:34.503Z,8.25
2018-01-13T13:52:38.741Z,8.63
2018-01-13T13:53:44.708Z,7.68
2018-01-13T13:54:48.889Z,8.75